Memorial Field Hot Springs US
ICAO: KHOT
IATA: HOT
Category: Medium
Scheduled Services: Yes

Elevation: 540 ft
TransAlt. 18000 ft.

Airport Communications:
MEMPHIS CNTR:127.825
ASOS:119.925
JONESBORO RDO:110
CTAF/UNICOM:123

KHOT Zoom In..

If you have problems with the map follow the link
https://www.worldairports.se/pages/airport.php?
ICAO=KHOT

Runways:

(A) RW 05 length 6595 ft width 150 ft
ILS 111.50 / hdg 50

(B) RW 13 length 4098 ft width 100 ft
---- / hdg 130

(C) RW 23 length 6595 ft width 150 ft
---- / hdg 230

(D) RW 31 length 4098 ft width 100 ft
---- / hdg 310

Location; KHOT
Day. 19 / Time. 00.53 Zulu
* Altimeter: 30.32
* Temperature: 10° c. 50°f.
* Wind from: 340° Speed 08 kn.
Dewpoint: -06° c.
Visibility: 10 Statute Miles.
Clouds: Clear (automated report).

KHOT 190053Z AUTO 34008KT 10SM CLR 10/M06 A3032 RMK AO2 SLP265 T01001056


Wind From 340°
Speed 08 kn.

 
 
jpsmedia worldairports.se 2020   terms of use